sensor_id;sensor_type;location;lat;lon;timestamp;P1;durP1;ratioP1;P2;durP2;ratioP2
40501;SDS011;29631;49.168;9.848;2023-01-28T00:00:32;2.13;;;2.03;;
40501;SDS011;29631;49.168;9.848;2023-01-28T00:02:58;1.98;;;1.88;;
40501;SDS011;29631;49.168;9.848;2023-01-28T00:05:24;3.13;;;1.85;;
40501;SDS011;29631;49.168;9.848;2023-01-28T00:07:50;2.05;;;1.95;;
40501;SDS011;29631;49.168;9.848;2023-01-28T00:10:16;1.90;;;1.80;;
40501;SDS011;29631;49.168;9.848;2023-01-28T00:12:42;2.28;;;2.17;;
40501;SDS011;29631;49.168;9.848;2023-01-28T00:15:08;2.10;;;2.00;;
40501;SDS011;29631;49.168;9.848;2023-01-28T00:17:35;2.17;;;2.08;;
40501;SDS011;29631;49.168;9.848;2023-01-28T00:20:05;2.33;;;2.22;;
40501;SDS011;29631;49.168;9.848;2023-01-28T00:22:32;2.05;;;1.95;;
40501;SDS011;29631;49.168;9.848;2023-01-28T00:24:57;2.20;;;2.10;;
40501;SDS011;29631;49.168;9.848;2023-01-28T00:27:23;2.10;;;2.00;;
40501;SDS011;29631;49.168;9.848;2023-01-28T00:29:49;2.38;;;2.20;;
40501;SDS011;29631;49.168;9.848;2023-01-28T00:32:15;2.47;;;2.30;;
40501;SDS011;29631;49.168;9.848;2023-01-28T00:34:40;1.85;;;1.77;;
40501;SDS011;29631;49.168;9.848;2023-01-28T00:37:06;1.92;;;1.83;;
40501;SDS011;29631;49.168;9.848;2023-01-28T00:39:33;2.08;;;1.98;;
40501;SDS011;29631;49.168;9.848;2023-01-28T00:41:58;2.00;;;1.90;;
40501;SDS011;29631;49.168;9.848;2023-01-28T00:44:24;1.90;;;1.80;;
40501;SDS011;29631;49.168;9.848;2023-01-28T00:46:50;2.10;;;2.00;;
40501;SDS011;29631;49.168;9.848;2023-01-28T00:49:15;2.13;;;2.03;;
40501;SDS011;29631;49.168;9.848;2023-01-28T00:51:41;1.88;;;1.77;;
40501;SDS011;29631;49.168;9.848;2023-01-28T00:54:07;2.30;;;2.20;;
40501;SDS011;29631;49.168;9.848;2023-01-28T00:56:34;1.98;;;1.88;;
40501;SDS011;29631;49.168;9.848;2023-01-28T00:59:00;1.95;;;1.85;;
40501;SDS011;29631;49.168;9.848;2023-01-28T01:01:26;2.17;;;2.08;;
40501;SDS011;29631;49.168;9.848;2023-01-28T01:03:53;2.20;;;2.10;;
40501;SDS011;29631;49.168;9.848;2023-01-28T01:06:26;2.10;;;2.00;;
40501;SDS011;29631;49.168;9.848;2023-01-28T01:09:05;2.28;;;2.17;;
40501;SDS011;29631;49.168;9.848;2023-01-28T01:11:34;2.35;;;2.25;;
40501;SDS011;29631;49.168;9.848;2023-01-28T01:14:00;2.40;;;2.30;;
40501;SDS011;29631;49.168;9.848;2023-01-28T01:16:28;2.38;;;2.28;;
40501;SDS011;29631;49.168;9.848;2023-01-28T01:19:00;2.17;;;2.08;;
40501;SDS011;29631;49.168;9.848;2023-01-28T01:21:26;2.50;;;2.40;;
40501;SDS011;29631;49.168;9.848;2023-01-28T01:23:54;2.35;;;2.25;;
40501;SDS011;29631;49.168;9.848;2023-01-28T01:26:20;2.65;;;2.47;;
40501;SDS011;29631;49.168;9.848;2023-01-28T01:28:47;2.17;;;2.08;;
40501;SDS011;29631;49.168;9.848;2023-01-28T01:31:15;2.40;;;2.30;;
40501;SDS011;29631;49.168;9.848;2023-01-28T01:33:44;2.42;;;2.33;;
40501;SDS011;29631;49.168;9.848;2023-01-28T01:36:12;2.50;;;2.40;;
40501;SDS011;29631;49.168;9.848;2023-01-28T01:38:39;2.40;;;2.30;;
40501;SDS011;29631;49.168;9.848;2023-01-28T01:41:06;2.50;;;2.35;;
40501;SDS011;29631;49.168;9.848;2023-01-28T01:43:45;2.30;;;2.20;;
40501;SDS011;29631;49.168;9.848;2023-01-28T01:46:14;2.63;;;2.42;;
40501;SDS011;29631;49.168;9.848;2023-01-28T01:48:53;2.80;;;2.60;;
40501;SDS011;29631;49.168;9.848;2023-01-28T01:51:25;2.42;;;2.33;;
40501;SDS011;29631;49.168;9.848;2023-01-28T01:53:57;2.70;;;2.60;;
40501;SDS011;29631;49.168;9.848;2023-01-28T01:56:26;3.08;;;2.88;;
40501;SDS011;29631;49.168;9.848;2023-01-28T01:58:57;2.30;;;2.20;;
40501;SDS011;29631;49.168;9.848;2023-01-28T02:01:25;2.83;;;2.63;;
40501;SDS011;29631;49.168;9.848;2023-01-28T02:04:00;3.20;;;2.90;;
40501;SDS011;29631;49.168;9.848;2023-01-28T02:06:39;2.83;;;2.63;;
40501;SDS011;29631;49.168;9.848;2023-01-28T02:09:06;3.00;;;2.80;;
40501;SDS011;29631;49.168;9.848;2023-01-28T02:12:39;2.55;;;2.45;;
40501;SDS011;29631;49.168;9.848;2023-01-28T02:14:49;2.83;;;2.63;;
40501;SDS011;29631;49.168;9.848;2023-01-28T02:17:20;2.75;;;2.55;;
40501;SDS011;29631;49.168;9.848;2023-01-28T02:19:49;2.60;;;2.50;;
40501;SDS011;29631;49.168;9.848;2023-01-28T02:36:54;2.97;;;2.75;;
40501;SDS011;29631;49.168;9.848;2023-01-28T02:39:35;2.65;;;2.53;;
40501;SDS011;29631;49.168;9.848;2023-01-28T02:42:19;3.17;;;2.97;;
40501;SDS011;29631;49.168;9.848;2023-01-28T02:44:51;2.80;;;2.60;;
40501;SDS011;29631;49.168;9.848;2023-01-28T02:47:16;3.03;;;2.85;;
40501;SDS011;29631;49.168;9.848;2023-01-28T02:50:01;3.08;;;2.88;;
40501;SDS011;29631;49.168;9.848;2023-01-28T02:52:51;3.00;;;2.80;;
40501;SDS011;29631;49.168;9.848;2023-01-28T02:55:50;3.17;;;2.97;;
40501;SDS011;29631;49.168;9.848;2023-01-28T02:58:47;2.78;;;2.60;;
40501;SDS011;29631;49.168;9.848;2023-01-28T03:01:45;3.15;;;2.95;;
40501;SDS011;29631;49.168;9.848;2023-01-28T03:04:23;2.97;;;2.78;;
40501;SDS011;29631;49.168;9.848;2023-01-28T03:07:01;3.75;;;2.85;;
40501;SDS011;29631;49.168;9.848;2023-01-28T03:09:30;3.60;;;3.30;;
40501;SDS011;29631;49.168;9.848;2023-01-28T03:12:00;3.30;;;3.10;;
40501;SDS011;29631;49.168;9.848;2023-01-28T03:15:02;3.33;;;2.88;;
40501;SDS011;29631;49.168;9.848;2023-01-28T03:18:17;2.67;;;2.58;;
40501;SDS011;29631;49.168;9.848;2023-01-28T03:23:59;3.08;;;2.88;;
40501;SDS011;29631;49.168;9.848;2023-01-28T03:27:01;4.00;;;2.85;;
40501;SDS011;29631;49.168;9.848;2023-01-28T03:30:03;3.28;;;3.05;;
40501;SDS011;29631;49.168;9.848;2023-01-28T03:33:16;2.78;;;2.65;;
40501;SDS011;29631;49.168;9.848;2023-01-28T03:36:01;3.40;;;3.17;;
40501;SDS011;29631;49.168;9.848;2023-01-28T03:38:46;2.92;;;2.72;;
40501;SDS011;29631;49.168;9.848;2023-01-28T03:41:18;3.30;;;3.10;;
40501;SDS011;29631;49.168;9.848;2023-01-28T03:43:49;3.45;;;3.25;;
40501;SDS011;29631;49.168;9.848;2023-01-28T03:46:16;3.17;;;2.92;;
40501;SDS011;29631;49.168;9.848;2023-01-28T03:48:42;3.63;;;3.33;;
40501;SDS011;29631;49.168;9.848;2023-01-28T03:51:08;3.67;;;3.22;;
40501;SDS011;29631;49.168;9.848;2023-01-28T03:53:34;3.58;;;3.30;;
40501;SDS011;29631;49.168;9.848;2023-01-28T03:56:00;3.42;;;3.22;;
40501;SDS011;29631;49.168;9.848;2023-01-28T03:58:26;3.22;;;3.03;;
40501;SDS011;29631;49.168;9.848;2023-01-28T04:01:10;3.55;;;3.35;;
40501;SDS011;29631;49.168;9.848;2023-01-28T04:03:37;3.55;;;3.35;;
40501;SDS011;29631;49.168;9.848;2023-01-28T04:06:04;3.80;;;3.50;;
40501;SDS011;29631;49.168;9.848;2023-01-28T04:08:32;3.88;;;3.58;;
40501;SDS011;29631;49.168;9.848;2023-01-28T04:10:58;3.97;;;3.58;;
40501;SDS011;29631;49.168;9.848;2023-01-28T04:13:39;3.55;;;3.35;;
40501;SDS011;29631;49.168;9.848;2023-01-28T04:16:09;3.95;;;3.65;;
40501;SDS011;29631;49.168;9.848;2023-01-28T04:18:36;4.03;;;3.75;;
40501;SDS011;29631;49.168;9.848;2023-01-28T04:21:02;4.22;;;3.92;;
40501;SDS011;29631;49.168;9.848;2023-01-28T04:23:27;4.47;;;4.07;;
40501;SDS011;29631;49.168;9.848;2023-01-28T04:25:56;3.88;;;3.58;;
40501;SDS011;29631;49.168;9.848;2023-01-28T04:28:22;4.20;;;3.90;;
40501;SDS011;29631;49.168;9.848;2023-01-28T04:30:48;4.45;;;3.67;;
40501;SDS011;29631;49.168;9.848;2023-01-28T04:33:14;4.10;;;3.80;;
40501;SDS011;29631;49.168;9.848;2023-01-28T04:35:40;4.10;;;3.80;;
40501;SDS011;29631;49.168;9.848;2023-01-28T04:38:06;4.32;;;4.03;;
40501;SDS011;29631;49.168;9.848;2023-01-28T04:40:32;4.78;;;3.95;;
40501;SDS011;29631;49.168;9.848;2023-01-28T04:42:58;4.80;;;4.38;;
40501;SDS011;29631;49.168;9.848;2023-01-28T04:45:23;5.70;;;5.20;;
40501;SDS011;29631;49.168;9.848;2023-01-28T04:47:49;4.45;;;4.05;;
40501;SDS011;29631;49.168;9.848;2023-01-28T04:50:15;5.25;;;4.63;;
40501;SDS011;29631;49.168;9.848;2023-01-28T04:52:41;5.10;;;4.68;;
40501;SDS011;29631;49.168;9.848;2023-01-28T04:55:08;4.95;;;4.65;;
40501;SDS011;29631;49.168;9.848;2023-01-28T04:57:35;4.93;;;4.40;;
40501;SDS011;29631;49.168;9.848;2023-01-28T05:00:01;4.57;;;4.18;;
40501;SDS011;29631;49.168;9.848;2023-01-28T05:02:28;5.05;;;4.65;;
40501;SDS011;29631;49.168;9.848;2023-01-28T05:04:53;5.10;;;4.70;;
40501;SDS011;29631;49.168;9.848;2023-01-28T05:07:19;5.60;;;5.15;;
40501;SDS011;29631;49.168;9.848;2023-01-28T05:09:45;4.65;;;4.35;;
40501;SDS011;29631;49.168;9.848;2023-01-28T05:12:10;5.38;;;4.97;;
40501;SDS011;29631;49.168;9.848;2023-01-28T05:14:36;5.43;;;5.03;;
40501;SDS011;29631;49.168;9.848;2023-01-28T05:17:02;5.28;;;4.88;;
40501;SDS011;29631;49.168;9.848;2023-01-28T05:19:27;5.25;;;4.88;;
40501;SDS011;29631;49.168;9.848;2023-01-28T05:21:53;5.63;;;5.10;;
40501;SDS011;29631;49.168;9.848;2023-01-28T05:24:19;5.50;;;5.07;;
40501;SDS011;29631;49.168;9.848;2023-01-28T05:26:45;5.03;;;4.68;;
40501;SDS011;29631;49.168;9.848;2023-01-28T05:29:11;5.53;;;5.13;;
40501;SDS011;29631;49.168;9.848;2023-01-28T05:31:36;6.25;;;5.75;;
40501;SDS011;29631;49.168;9.848;2023-01-28T05:34:02;5.82;;;5.35;;
40501;SDS011;29631;49.168;9.848;2023-01-28T05:36:28;5.55;;;5.05;;
40501;SDS011;29631;49.168;9.848;2023-01-28T05:38:54;5.80;;;5.38;;
40501;SDS011;29631;49.168;9.848;2023-01-28T05:41:19;5.50;;;5.07;;
40501;SDS011;29631;49.168;9.848;2023-01-28T05:43:45;5.53;;;5.10;;
40501;SDS011;29631;49.168;9.848;2023-01-28T05:46:11;6.22;;;5.63;;
40501;SDS011;29631;49.168;9.848;2023-01-28T05:48:36;6.63;;;5.43;;
40501;SDS011;29631;49.168;9.848;2023-01-28T05:51:02;5.70;;;5.22;;
40501;SDS011;29631;49.168;9.848;2023-01-28T05:53:29;6.40;;;5.90;;
40501;SDS011;29631;49.168;9.848;2023-01-28T05:55:55;5.95;;;5.55;;
40501;SDS011;29631;49.168;9.848;2023-01-28T05:58:21;6.57;;;5.97;;
40501;SDS011;29631;49.168;9.848;2023-01-28T06:00:47;5.72;;;5.22;;
40501;SDS011;29631;49.168;9.848;2023-01-28T06:03:13;6.60;;;6.00;;
40501;SDS011;29631;49.168;9.848;2023-01-28T06:05:39;6.65;;;6.05;;
40501;SDS011;29631;49.168;9.848;2023-01-28T06:08:04;6.43;;;5.93;;
40501;SDS011;29631;49.168;9.848;2023-01-28T06:10:30;5.95;;;5.45;;
40501;SDS011;29631;49.168;9.848;2023-01-28T06:12:56;7.07;;;6.38;;
40501;SDS011;29631;49.168;9.848;2023-01-28T06:15:22;6.70;;;6.10;;
40501;SDS011;29631;49.168;9.848;2023-01-28T06:17:48;7.38;;;6.68;;
40501;SDS011;29631;49.168;9.848;2023-01-28T06:20:14;7.43;;;6.75;;
40501;SDS011;29631;49.168;9.848;2023-01-28T06:22:41;7.32;;;6.70;;
40501;SDS011;29631;49.168;9.848;2023-01-28T06:25:07;6.90;;;6.30;;
40501;SDS011;29631;49.168;9.848;2023-01-28T06:27:33;7.03;;;6.30;;
40501;SDS011;29631;49.168;9.848;2023-01-28T06:29:59;7.70;;;7.00;;
40501;SDS011;29631;49.168;9.848;2023-01-28T06:32:26;7.70;;;7.00;;
40501;SDS011;29631;49.168;9.848;2023-01-28T06:34:52;9.88;;;6.53;;
40501;SDS011;29631;49.168;9.848;2023-01-28T06:37:18;7.90;;;7.20;;
40501;SDS011;29631;49.168;9.848;2023-01-28T06:39:44;9.82;;;8.82;;
40501;SDS011;29631;49.168;9.848;2023-01-28T06:42:09;9.40;;;8.50;;
40501;SDS011;29631;49.168;9.848;2023-01-28T06:44:35;10.43;;;7.25;;
40501;SDS011;29631;49.168;9.848;2023-01-28T06:47:01;9.05;;;8.15;;
40501;SDS011;29631;49.168;9.848;2023-01-28T06:49:27;8.63;;;7.80;;
40501;SDS011;29631;49.168;9.848;2023-01-28T06:51:52;8.80;;;8.00;;
40501;SDS011;29631;49.168;9.848;2023-01-28T06:54:18;7.53;;;6.82;;
40501;SDS011;29631;49.168;9.848;2023-01-28T06:56:44;8.52;;;7.45;;
40501;SDS011;29631;49.168;9.848;2023-01-28T06:59:09;8.38;;;7.57;;
40501;SDS011;29631;49.168;9.848;2023-01-28T07:01:35;8.05;;;7.35;;
40501;SDS011;29631;49.168;9.848;2023-01-28T07:04:01;7.43;;;6.68;;
40501;SDS011;29631;49.168;9.848;2023-01-28T07:06:26;7.80;;;7.10;;
40501;SDS011;29631;49.168;9.848;2023-01-28T07:08:52;7.72;;;7.03;;
40501;SDS011;29631;49.168;9.848;2023-01-28T07:11:18;7.88;;;6.88;;
40501;SDS011;29631;49.168;9.848;2023-01-28T07:13:44;7.80;;;7.20;;
40501;SDS011;29631;49.168;9.848;2023-01-28T07:16:11;9.73;;;8.82;;
40501;SDS011;29631;49.168;9.848;2023-01-28T07:18:37;9.27;;;8.38;;
40501;SDS011;29631;49.168;9.848;2023-01-28T07:21:03;8.85;;;8.05;;
40501;SDS011;29631;49.168;9.848;2023-01-28T07:23:29;8.02;;;7.30;;
40501;SDS011;29631;49.168;9.848;2023-01-28T07:25:59;7.80;;;7.10;;
40501;SDS011;29631;49.168;9.848;2023-01-28T07:28:26;7.57;;;6.90;;
40501;SDS011;29631;49.168;9.848;2023-01-28T07:30:52;7.78;;;7.07;;
40501;SDS011;29631;49.168;9.848;2023-01-28T07:33:18;7.75;;;7.05;;
40501;SDS011;29631;49.168;9.848;2023-01-28T07:35:44;7.65;;;7.05;;
40501;SDS011;29631;49.168;9.848;2023-01-28T07:38:10;8.40;;;7.65;;
40501;SDS011;29631;49.168;9.848;2023-01-28T07:40:37;7.30;;;6.70;;
40501;SDS011;29631;49.168;9.848;2023-01-28T07:43:02;7.57;;;6.88;;
40501;SDS011;29631;49.168;9.848;2023-01-28T07:45:31;8.68;;;7.88;;
40501;SDS011;29631;49.168;9.848;2023-01-28T07:47:58;8.35;;;7.53;;
40501;SDS011;29631;49.168;9.848;2023-01-28T07:50:26;7.63;;;6.90;;
40501;SDS011;29631;49.168;9.848;2023-01-28T07:52:54;8.23;;;7.03;;
40501;SDS011;29631;49.168;9.848;2023-01-28T07:55:20;7.90;;;7.10;;
40501;SDS011;29631;49.168;9.848;2023-01-28T07:57:47;8.30;;;7.50;;
40501;SDS011;29631;49.168;9.848;2023-01-28T08:00:19;7.97;;;7.20;;
40501;SDS011;29631;49.168;9.848;2023-01-28T08:02:46;7.85;;;7.20;;
40501;SDS011;29631;49.168;9.848;2023-01-28T08:05:16;7.75;;;7.05;;
40501;SDS011;29631;49.168;9.848;2023-01-28T08:07:45;7.95;;;7.25;;
40501;SDS011;29631;49.168;9.848;2023-01-28T08:10:15;7.75;;;7.05;;
40501;SDS011;29631;49.168;9.848;2023-01-28T08:12:54;8.50;;;7.60;;
40501;SDS011;29631;49.168;9.848;2023-01-28T08:15:24;8.27;;;7.47;;
40501;SDS011;29631;49.168;9.848;2023-01-28T08:17:52;9.13;;;7.82;;
40501;SDS011;29631;49.168;9.848;2023-01-28T08:20:19;12.80;;;9.07;;
40501;SDS011;29631;49.168;9.848;2023-01-28T08:22:46;10.55;;;8.15;;
40501;SDS011;29631;49.168;9.848;2023-01-28T08:25:12;9.98;;;8.52;;
40501;SDS011;29631;49.168;9.848;2023-01-28T08:27:37;9.18;;;8.20;;
40501;SDS011;29631;49.168;9.848;2023-01-28T08:30:04;10.23;;;8.57;;
40501;SDS011;29631;49.168;9.848;2023-01-28T08:32:30;9.25;;;8.35;;
40501;SDS011;29631;49.168;9.848;2023-01-28T08:34:56;9.05;;;8.15;;
40501;SDS011;29631;49.168;9.848;2023-01-28T08:37:22;8.45;;;7.65;;
40501;SDS011;29631;49.168;9.848;2023-01-28T08:39:48;8.80;;;8.00;;
40501;SDS011;29631;49.168;9.848;2023-01-28T08:42:14;8.15;;;7.45;;
40501;SDS011;29631;49.168;9.848;2023-01-28T08:44:40;9.27;;;7.75;;
40501;SDS011;29631;49.168;9.848;2023-01-28T08:47:06;9.00;;;8.10;;
40501;SDS011;29631;49.168;9.848;2023-01-28T08:49:31;10.90;;;9.32;;
40501;SDS011;29631;49.168;9.848;2023-01-28T08:51:57;10.73;;;9.65;;
40501;SDS011;29631;49.168;9.848;2023-01-28T08:54:23;11.18;;;10.07;;
40501;SDS011;29631;49.168;9.848;2023-01-28T08:56:49;10.27;;;9.23;;
40501;SDS011;29631;49.168;9.848;2023-01-28T08:59:16;18.58;;;14.60;;
40501;SDS011;29631;49.168;9.848;2023-01-28T09:01:42;16.23;;;14.63;;
40501;SDS011;29631;49.168;9.848;2023-01-28T09:04:08;12.70;;;11.40;;
40501;SDS011;29631;49.168;9.848;2023-01-28T09:06:34;11.05;;;9.95;;
40501;SDS011;29631;49.168;9.848;2023-01-28T09:09:00;9.77;;;8.77;;
40501;SDS011;29631;49.168;9.848;2023-01-28T09:11:26;9.77;;;8.27;;
40501;SDS011;29631;49.168;9.848;2023-01-28T09:13:53;10.95;;;9.93;;
40501;SDS011;29631;49.168;9.848;2023-01-28T09:16:21;11.07;;;10.02;;
40501;SDS011;29631;49.168;9.848;2023-01-28T09:18:47;9.18;;;8.27;;
40501;SDS011;29631;49.168;9.848;2023-01-28T09:21:13;9.55;;;8.30;;
40501;SDS011;29631;49.168;9.848;2023-01-28T09:23:39;8.57;;;7.78;;
40501;SDS011;29631;49.168;9.848;2023-01-28T09:26:05;9.45;;;8.32;;
40501;SDS011;29631;49.168;9.848;2023-01-28T09:28:31;8.18;;;7.35;;
40501;SDS011;29631;49.168;9.848;2023-01-28T09:31:05;8.45;;;7.47;;
40501;SDS011;29631;49.168;9.848;2023-01-28T09:33:33;8.95;;;8.15;;
40501;SDS011;29631;49.168;9.848;2023-01-28T09:36:02;8.38;;;7.55;;
40501;SDS011;29631;49.168;9.848;2023-01-28T09:38:30;8.02;;;7.32;;
40501;SDS011;29631;49.168;9.848;2023-01-28T09:40:56;8.50;;;7.70;;
40501;SDS011;29631;49.168;9.848;2023-01-28T09:46:34;8.88;;;7.32;;
40501;SDS011;29631;49.168;9.848;2023-01-28T09:49:04;7.90;;;7.10;;
40501;SDS011;29631;49.168;9.848;2023-01-28T09:51:59;8.20;;;7.18;;
40501;SDS011;29631;49.168;9.848;2023-01-28T09:54:26;7.88;;;7.18;;
40501;SDS011;29631;49.168;9.848;2023-01-28T09:57:12;7.07;;;6.38;;
40501;SDS011;29631;49.168;9.848;2023-01-28T09:59:56;6.18;;;5.60;;
40501;SDS011;29631;49.168;9.848;2023-01-28T10:05:17;5.60;;;5.10;;
40501;SDS011;29631;49.168;9.848;2023-01-28T10:08:04;5.35;;;4.95;;
40501;SDS011;29631;49.168;9.848;2023-01-28T10:13:48;5.43;;;5.03;;
40501;SDS011;29631;49.168;9.848;2023-01-28T10:16:22;5.45;;;4.95;;
40501;SDS011;29631;49.168;9.848;2023-01-28T10:19:02;5.85;;;5.35;;
40501;SDS011;29631;49.168;9.848;2023-01-28T10:21:53;5.47;;;4.97;;
40501;SDS011;29631;49.168;9.848;2023-01-28T10:24:30;5.97;;;5.40;;
40501;SDS011;29631;49.168;9.848;2023-01-28T10:27:21;5.25;;;4.85;;
40501;SDS011;29631;49.168;9.848;2023-01-28T10:29:52;5.03;;;4.63;;
40501;SDS011;29631;49.168;9.848;2023-01-28T10:32:25;6.32;;;5.80;;
40501;SDS011;29631;49.168;9.848;2023-01-28T10:34:58;5.10;;;4.70;;
40501;SDS011;29631;49.168;9.848;2023-01-28T10:37:25;5.40;;;4.90;;
40501;SDS011;29631;49.168;9.848;2023-01-28T10:39:54;4.38;;;4.07;;
40501;SDS011;29631;49.168;9.848;2023-01-28T10:50:50;5.40;;;4.90;;
40501;SDS011;29631;49.168;9.848;2023-01-28T10:53:32;4.95;;;4.43;;
40501;SDS011;29631;49.168;9.848;2023-01-28T10:56:03;5.32;;;4.93;;
40501;SDS011;29631;49.168;9.848;2023-01-28T10:58:45;5.38;;;4.93;;
40501;SDS011;29631;49.168;9.848;2023-01-28T11:01:37;4.85;;;4.40;;
40501;SDS011;29631;49.168;9.848;2023-01-28T11:04:04;4.88;;;4.50;;
40501;SDS011;29631;49.168;9.848;2023-01-28T11:06:31;4.30;;;3.90;;
40501;SDS011;29631;49.168;9.848;2023-01-28T11:08:57;4.13;;;3.83;;
40501;SDS011;29631;49.168;9.848;2023-01-28T11:11:23;4.95;;;4.50;;
40501;SDS011;29631;49.168;9.848;2023-01-28T11:13:51;4.35;;;4.03;;
40501;SDS011;29631;49.168;9.848;2023-01-28T11:16:19;5.28;;;4.13;;
40501;SDS011;29631;49.168;9.848;2023-01-28T11:18:47;4.40;;;4.10;;
40501;SDS011;29631;49.168;9.848;2023-01-28T11:21:18;4.68;;;4.28;;
40501;SDS011;29631;49.168;9.848;2023-01-28T11:23:54;4.45;;;4.00;;
40501;SDS011;29631;49.168;9.848;2023-01-28T11:26:30;4.00;;;3.70;;
40501;SDS011;29631;49.168;9.848;2023-01-28T11:28:59;3.88;;;3.58;;
40501;SDS011;29631;49.168;9.848;2023-01-28T11:31:25;4.53;;;4.13;;
40501;SDS011;29631;49.168;9.848;2023-01-28T11:33:58;4.03;;;3.72;;
40501;SDS011;29631;49.168;9.848;2023-01-28T11:36:27;3.58;;;3.38;;
40501;SDS011;29631;49.168;9.848;2023-01-28T11:38:55;3.95;;;3.65;;
40501;SDS011;29631;49.168;9.848;2023-01-28T11:41:28;4.53;;;4.18;;
40501;SDS011;29631;49.168;9.848;2023-01-28T11:44:23;4.43;;;4.10;;
40501;SDS011;29631;49.168;9.848;2023-01-28T11:55:21;6.70;;;6.13;;
40501;SDS011;29631;49.168;9.848;2023-01-28T12:01:29;4.85;;;4.45;;
40501;SDS011;29631;49.168;9.848;2023-01-28T12:11:03;5.90;;;5.30;;
40501;SDS011;29631;49.168;9.848;2023-01-28T12:16:07;10.85;;;8.80;;
40501;SDS011;29631;49.168;9.848;2023-01-28T12:19:02;6.25;;;5.57;;
40501;SDS011;29631;49.168;9.848;2023-01-28T12:25:19;4.20;;;3.80;;
40501;SDS011;29631;49.168;9.848;2023-01-28T12:34:26;3.08;;;2.88;;
40501;SDS011;29631;49.168;9.848;2023-01-28T12:43:13;2.88;;;2.67;;
40501;SDS011;29631;49.168;9.848;2023-01-28T12:45:54;3.03;;;2.83;;
40501;SDS011;29631;49.168;9.848;2023-01-28T12:48:39;3.33;;;3.13;;
40501;SDS011;29631;49.168;9.848;2023-01-28T12:51:15;2.78;;;2.63;;
40501;SDS011;29631;49.168;9.848;2023-01-28T12:53:56;2.60;;;2.50;;
40501;SDS011;29631;49.168;9.848;2023-01-28T12:56:36;3.25;;;3.05;;
40501;SDS011;29631;49.168;9.848;2023-01-28T12:59:11;2.63;;;2.53;;
40501;SDS011;29631;49.168;9.848;2023-01-28T13:10:27;2.63;;;2.42;;
40501;SDS011;29631;49.168;9.848;2023-01-28T13:13:00;2.65;;;2.45;;
40501;SDS011;29631;49.168;9.848;2023-01-28T13:15:29;2.92;;;2.72;;
40501;SDS011;29631;49.168;9.848;2023-01-28T13:23:22;2.75;;;2.58;;
40501;SDS011;29631;49.168;9.848;2023-01-28T13:25:52;3.15;;;2.95;;
40501;SDS011;29631;49.168;9.848;2023-01-28T13:28:27;2.85;;;2.70;;
40501;SDS011;29631;49.168;9.848;2023-01-28T13:31:16;2.65;;;2.53;;
40501;SDS011;29631;49.168;9.848;2023-01-28T13:36:28;2.50;;;2.38;;
40501;SDS011;29631;49.168;9.848;2023-01-28T13:39:18;2.65;;;2.45;;
40501;SDS011;29631;49.168;9.848;2023-01-28T13:41:48;2.95;;;2.75;;
40501;SDS011;29631;49.168;9.848;2023-01-28T13:44:32;2.90;;;2.70;;
40501;SDS011;29631;49.168;9.848;2023-01-28T13:49:49;2.63;;;2.53;;
40501;SDS011;29631;49.168;9.848;2023-01-28T13:52:48;3.15;;;2.95;;
40501;SDS011;29631;49.168;9.848;2023-01-28T13:55:48;3.10;;;2.90;;
40501;SDS011;29631;49.168;9.848;2023-01-28T14:08:30;2.70;;;2.60;;
40501;SDS011;29631;49.168;9.848;2023-01-28T14:17:47;3.00;;;2.80;;
40501;SDS011;29631;49.168;9.848;2023-01-28T14:23:02;3.17;;;2.97;;
40501;SDS011;29631;49.168;9.848;2023-01-28T14:28:08;3.00;;;2.80;;
40501;SDS011;29631;49.168;9.848;2023-01-28T14:30:46;2.60;;;2.45;;
40501;SDS011;29631;49.168;9.848;2023-01-28T14:33:18;3.00;;;2.80;;
40501;SDS011;29631;49.168;9.848;2023-01-28T14:35:46;2.33;;;2.22;;
40501;SDS011;29631;49.168;9.848;2023-01-28T14:38:14;2.35;;;2.25;;
40501;SDS011;29631;49.168;9.848;2023-01-28T14:40:45;2.63;;;2.45;;
40501;SDS011;29631;49.168;9.848;2023-01-28T14:43:21;2.70;;;2.50;;
40501;SDS011;29631;49.168;9.848;2023-01-28T14:48:48;2.70;;;2.50;;
40501;SDS011;29631;49.168;9.848;2023-01-28T14:54:05;2.42;;;2.33;;
40501;SDS011;29631;49.168;9.848;2023-01-28T15:00:16;2.25;;;2.15;;
40501;SDS011;29631;49.168;9.848;2023-01-28T15:02:47;2.55;;;2.35;;
40501;SDS011;29631;49.168;9.848;2023-01-28T15:05:16;2.60;;;2.50;;
40501;SDS011;29631;49.168;9.848;2023-01-28T15:07:47;2.25;;;2.13;;
40501;SDS011;29631;49.168;9.848;2023-01-28T15:10:15;2.58;;;2.45;;
40501;SDS011;29631;49.168;9.848;2023-01-28T15:13:05;2.35;;;2.25;;
40501;SDS011;29631;49.168;9.848;2023-01-28T15:15:36;2.70;;;2.50;;
40501;SDS011;29631;49.168;9.848;2023-01-28T15:18:16;2.47;;;2.38;;
40501;SDS011;29631;49.168;9.848;2023-01-28T15:20:48;2.67;;;2.50;;
40501;SDS011;29631;49.168;9.848;2023-01-28T15:23:17;2.90;;;2.70;;
40501;SDS011;29631;49.168;9.848;2023-01-28T15:25:51;2.70;;;2.47;;
40501;SDS011;29631;49.168;9.848;2023-01-28T15:28:26;3.10;;;2.90;;
40501;SDS011;29631;49.168;9.848;2023-01-28T15:30:56;2.78;;;2.47;;
40501;SDS011;29631;49.168;9.848;2023-01-28T15:33:23;3.00;;;2.80;;
40501;SDS011;29631;49.168;9.848;2023-01-28T15:35:51;2.58;;;2.47;;
40501;SDS011;29631;49.168;9.848;2023-01-28T15:38:18;2.80;;;2.60;;
40501;SDS011;29631;49.168;9.848;2023-01-28T15:40:47;3.72;;;3.42;;
40501;SDS011;29631;49.168;9.848;2023-01-28T15:43:19;3.40;;;3.20;;
40501;SDS011;29631;49.168;9.848;2023-01-28T15:45:50;3.38;;;3.17;;
40501;SDS011;29631;49.168;9.848;2023-01-28T15:48:25;3.20;;;2.90;;
40501;SDS011;29631;49.168;9.848;2023-01-28T15:53:27;3.05;;;2.85;;
40501;SDS011;29631;49.168;9.848;2023-01-28T15:56:03;2.65;;;2.50;;
40501;SDS011;29631;49.168;9.848;2023-01-28T15:58:32;2.90;;;2.80;;
40501;SDS011;29631;49.168;9.848;2023-01-28T16:01:22;2.72;;;2.55;;
40501;SDS011;29631;49.168;9.848;2023-01-28T16:04:03;2.70;;;2.50;;
40501;SDS011;29631;49.168;9.848;2023-01-28T16:06:34;2.40;;;2.20;;
40501;SDS011;29631;49.168;9.848;2023-01-28T16:09:12;2.72;;;2.60;;
40501;SDS011;29631;49.168;9.848;2023-01-28T16:11:47;2.40;;;2.30;;
40501;SDS011;29631;49.168;9.848;2023-01-28T16:16:53;2.30;;;2.20;;
40501;SDS011;29631;49.168;9.848;2023-01-28T16:19:24;2.20;;;2.10;;
40501;SDS011;29631;49.168;9.848;2023-01-28T16:22:19;2.45;;;2.35;;
40501;SDS011;29631;49.168;9.848;2023-01-28T16:24:58;2.47;;;2.38;;
40501;SDS011;29631;49.168;9.848;2023-01-28T16:27:28;2.45;;;2.35;;
40501;SDS011;29631;49.168;9.848;2023-01-28T16:29:57;2.75;;;2.53;;
40501;SDS011;29631;49.168;9.848;2023-01-28T16:32:32;2.70;;;2.50;;
40501;SDS011;29631;49.168;9.848;2023-01-28T16:35:02;3.03;;;2.83;;
40501;SDS011;29631;49.168;9.848;2023-01-28T16:37:39;3.38;;;3.17;;
40501;SDS011;29631;49.168;9.848;2023-01-28T16:40:05;2.97;;;2.78;;
40501;SDS011;29631;49.168;9.848;2023-01-28T16:42:32;2.53;;;2.42;;
40501;SDS011;29631;49.168;9.848;2023-01-28T16:44:58;2.83;;;2.72;;
40501;SDS011;29631;49.168;9.848;2023-01-28T16:47:24;2.47;;;2.38;;
40501;SDS011;29631;49.168;9.848;2023-01-28T16:49:50;2.58;;;2.47;;
40501;SDS011;29631;49.168;9.848;2023-01-28T16:52:15;2.45;;;2.35;;
40501;SDS011;29631;49.168;9.848;2023-01-28T16:54:42;2.33;;;2.22;;
40501;SDS011;29631;49.168;9.848;2023-01-28T16:57:11;2.83;;;2.63;;
40501;SDS011;29631;49.168;9.848;2023-01-28T16:59:40;2.63;;;2.42;;
40501;SDS011;29631;49.168;9.848;2023-01-28T17:02:08;2.72;;;2.63;;
40501;SDS011;29631;49.168;9.848;2023-01-28T17:04:36;3.17;;;2.97;;
40501;SDS011;29631;49.168;9.848;2023-01-28T17:07:02;2.97;;;2.78;;
40501;SDS011;29631;49.168;9.848;2023-01-28T17:09:28;2.50;;;2.40;;
40501;SDS011;29631;49.168;9.848;2023-01-28T17:11:54;2.60;;;2.50;;
40501;SDS011;29631;49.168;9.848;2023-01-28T17:14:20;2.50;;;2.40;;
40501;SDS011;29631;49.168;9.848;2023-01-28T17:16:46;2.50;;;2.40;;
40501;SDS011;29631;49.168;9.848;2023-01-28T17:19:11;3.53;;;3.20;;